createdAt,value
2022-12-13T00:01:21.781Z,79.00
2022-12-13T00:03:48.387Z,68.88
2022-12-13T00:06:15.106Z,67.93
2022-12-13T00:08:41.851Z,74.38
2022-12-13T00:11:11.789Z,71.25
2022-12-13T00:13:38.593Z,72.75
2022-12-13T00:16:08.591Z,68.13
2022-12-13T00:18:35.047Z,73.25
2022-12-13T00:21:07.992Z,68.82
2022-12-13T00:23:35.115Z,70.07
2022-12-13T00:26:10.706Z,73.10
2022-12-13T00:28:37.917Z,66.47
2022-12-13T00:31:34.242Z,76.45
2022-12-13T00:33:51.319Z,80.38
2022-12-13T00:36:18.384Z,71.50
2022-12-13T00:38:45.179Z,65.93
2022-12-13T00:41:12.981Z,71.82
2022-12-13T00:43:39.432Z,66.20
2022-12-13T00:46:08.665Z,69.68
2022-12-13T00:48:35.174Z,68.18
2022-12-13T00:51:06.527Z,68.68
2022-12-13T00:53:32.999Z,65.50
2022-12-13T00:55:59.418Z,72.10
2022-12-13T00:58:25.880Z,69.63
2022-12-13T01:00:52.354Z,70.35
2022-12-13T01:03:25.360Z,72.30
2022-12-13T01:06:14.528Z,66.32
2022-12-13T01:08:38.990Z,68.70
2022-12-13T01:11:06.709Z,72.32
2022-12-13T01:13:33.459Z,66.80
2022-12-13T01:16:03.208Z,65.95
2022-12-13T01:18:29.899Z,64.57
2022-12-13T01:21:12.761Z,72.55
2022-12-13T01:23:39.886Z,67.57
2022-12-13T01:26:09.580Z,68.85
2022-12-13T01:28:36.323Z,66.55
2022-12-13T01:31:09.706Z,67.10
2022-12-13T01:33:36.702Z,71.30
2022-12-13T01:36:09.298Z,73.05
2022-12-13T01:38:37.952Z,63.15
2022-12-13T01:41:17.128Z,65.75
2022-12-13T01:43:44.690Z,73.15
2022-12-13T01:46:12.180Z,61.13
2022-12-13T01:48:44.603Z,72.78
2022-12-13T01:51:15.250Z,70.50
2022-12-13T01:53:44.670Z,67.85
2022-12-13T01:56:20.070Z,73.55
2022-12-13T01:58:48.579Z,67.32
2022-12-13T02:01:15.319Z,68.55
2022-12-13T02:03:42.670Z,69.68
2022-12-13T02:06:15.608Z,70.55
2022-12-13T02:08:44.661Z,68.97
2022-12-13T02:11:11.652Z,68.20
2022-12-13T02:13:38.246Z,64.70
2022-12-13T02:16:23.295Z,69.13
2022-12-13T02:18:57.740Z,62.10
2022-12-13T02:22:01.539Z,65.93
2022-12-13T02:24:39.955Z,62.05
2022-12-13T02:27:13.609Z,65.38
2022-12-13T02:30:01.849Z,65.00
2022-12-13T02:32:38.537Z,64.32
2022-12-13T02:35:11.095Z,63.92
2022-12-13T02:37:51.380Z,71.07
2022-12-13T02:40:26.790Z,71.22
2022-12-13T02:43:02.465Z,71.15
2022-12-13T02:45:38.726Z,66.43
2022-12-13T02:48:08.014Z,68.93
2022-12-13T02:50:35.854Z,67.72
2022-12-13T02:53:03.263Z,66.10
2022-12-13T02:55:29.791Z,72.75
2022-12-13T02:57:56.260Z,68.68
2022-12-13T03:00:31.045Z,74.05
2022-12-13T03:03:18.661Z,66.65
2022-12-13T03:06:22.413Z,67.68
2022-12-13T03:09:10.306Z,67.50
2022-12-13T03:12:21.802Z,64.60
2022-12-13T03:15:08.440Z,66.25
2022-12-13T03:17:41.168Z,64.18
2022-12-13T03:20:22.351Z,62.85
2022-12-13T03:22:50.692Z,65.22
2022-12-13T03:25:17.351Z,66.75
2022-12-13T03:27:58.143Z,67.65
2022-12-13T03:30:27.883Z,62.80
2022-12-13T03:32:54.297Z,61.63
2022-12-13T03:35:22.404Z,66.22
2022-12-13T03:37:49.513Z,67.75
2022-12-13T03:40:16.201Z,66.68
2022-12-13T03:42:42.747Z,60.42
2022-12-13T03:45:09.582Z,64.47
2022-12-13T03:47:36.089Z,71.07
2022-12-13T03:50:26.879Z,65.22
2022-12-13T03:52:51.316Z,68.30
2022-12-13T03:55:19.032Z,62.78
2022-12-13T03:57:45.496Z,68.85
2022-12-13T04:00:12.845Z,58.33
2022-12-13T04:02:39.342Z,65.43
2022-12-13T04:05:06.270Z,65.10
2022-12-13T04:07:34.361Z,59.58
2022-12-13T04:10:01.450Z,59.47
2022-12-13T04:12:48.593Z,67.18
2022-12-13T04:15:15.648Z,65.57
2022-12-13T04:17:42.578Z,65.30
2022-12-13T04:20:09.641Z,68.88
2022-12-13T04:22:36.194Z,61.78
2022-12-13T04:25:03.878Z,63.97
2022-12-13T04:27:30.352Z,63.05
2022-12-13T04:29:57.239Z,62.90
2022-12-13T04:32:26.929Z,56.38
2022-12-13T04:35:00.768Z,68.15
2022-12-13T04:37:28.596Z,60.38
2022-12-13T04:40:00.565Z,63.40
2022-12-13T04:42:27.789Z,64.53
2022-12-13T04:44:54.374Z,64.47
2022-12-13T04:47:20.957Z,61.92
2022-12-13T04:49:47.972Z,63.30
2022-12-13T04:52:22.177Z,64.97
2022-12-13T04:54:55.532Z,66.85
2022-12-13T04:57:22.500Z,59.97
2022-12-13T04:59:49.197Z,70.60
2022-12-13T05:02:23.147Z,60.85
2022-12-13T05:04:53.805Z,58.35
2022-12-13T05:07:21.800Z,63.70
2022-12-13T05:09:48.512Z,62.08
2022-12-13T05:12:23.189Z,63.83
2022-12-13T05:17:16.763Z,63.72
2022-12-13T05:19:43.265Z,66.88
2022-12-13T05:22:19.919Z,64.85
2022-12-13T05:24:47.010Z,63.38
2022-12-13T05:27:25.293Z,69.30
2022-12-13T05:30:04.177Z,63.83
2022-12-13T05:32:42.840Z,67.50
2022-12-13T05:35:22.473Z,63.80
2022-12-13T05:37:54.766Z,63.25
2022-12-13T05:40:23.239Z,67.40
2022-12-13T05:42:49.992Z,63.45
2022-12-13T05:45:18.366Z,66.68
2022-12-13T05:47:45.263Z,66.32
2022-12-13T05:50:12.338Z,62.10
2022-12-13T05:52:38.805Z,72.88
2022-12-13T05:55:06.006Z,72.20
2022-12-13T05:57:32.630Z,64.15
2022-12-13T06:00:00.796Z,65.75
2022-12-13T06:02:27.624Z,65.53
2022-12-13T06:04:54.248Z,65.40
2022-12-13T06:07:20.990Z,73.57
2022-12-13T06:09:47.502Z,67.25
2022-12-13T06:12:31.583Z,62.38
2022-12-13T06:15:01.014Z,64.25
2022-12-13T06:17:35.365Z,69.90
2022-12-13T06:20:02.344Z,72.13
2022-12-13T06:22:48.743Z,61.78
2022-12-13T06:25:30.709Z,62.38
2022-12-13T06:27:59.055Z,82.07
2022-12-13T06:30:27.879Z,58.22
2022-12-13T06:32:54.353Z,64.22
2022-12-13T06:35:28.913Z,70.47
2022-12-13T06:38:01.203Z,64.38
2022-12-13T06:40:30.315Z,67.78
2022-12-13T06:42:57.037Z,68.70
2022-12-13T06:45:23.817Z,65.65
2022-12-13T06:47:50.293Z,66.05
2022-12-13T06:50:16.959Z,65.25
2022-12-13T06:52:46.087Z,67.32
2022-12-13T06:55:12.606Z,64.18
2022-12-13T06:57:40.746Z,64.95
2022-12-13T07:00:09.055Z,68.32
2022-12-13T07:02:35.691Z,62.53
2022-12-13T07:05:02.215Z,65.88
2022-12-13T07:07:28.747Z,64.70
2022-12-13T07:09:55.357Z,67.80
2022-12-13T07:12:23.055Z,65.72
2022-12-13T07:14:49.500Z,73.68
2022-12-13T07:17:33.446Z,61.95
2022-12-13T07:20:02.814Z,66.25
2022-12-13T07:22:29.335Z,67.70
2022-12-13T07:25:01.369Z,66.40
2022-12-13T07:27:27.810Z,60.80
2022-12-13T07:29:54.280Z,73.00
2022-12-13T07:32:20.730Z,64.63
2022-12-13T07:34:47.171Z,60.63
2022-12-13T07:37:29.955Z,64.38
2022-12-13T07:40:02.990Z,61.08
2022-12-13T07:42:30.275Z,63.40
2022-12-13T07:44:56.736Z,63.85
2022-12-13T07:47:23.417Z,70.85
2022-12-13T07:49:49.862Z,68.85
2022-12-13T07:52:16.342Z,69.00
2022-12-13T07:54:42.823Z,62.17
2022-12-13T07:57:09.257Z,68.05
2022-12-13T07:59:35.709Z,68.07
2022-12-13T08:02:02.403Z,72.95
2022-12-13T08:04:29.560Z,63.55
2022-12-13T08:07:08.929Z,95.90
2022-12-13T08:09:35.642Z,80.50
2022-12-13T08:12:02.210Z,72.60
2022-12-13T08:14:28.860Z,61.83
2022-12-13T08:16:55.489Z,75.20
2022-12-13T08:19:21.992Z,79.10
2022-12-13T08:21:57.794Z,81.32
2022-12-13T08:24:29.842Z,76.93
2022-12-13T08:27:01.449Z,84.35
2022-12-13T08:29:34.142Z,85.20
2022-12-13T08:32:08.790Z,76.50
2022-12-13T08:34:35.387Z,73.65
2022-12-13T08:37:04.030Z,74.88
2022-12-13T08:39:36.313Z,74.78
2022-12-13T08:42:15.885Z,71.70
2022-12-13T08:44:45.039Z,73.43
2022-12-13T08:47:11.494Z,71.85
2022-12-13T08:49:38.032Z,73.85
2022-12-13T08:52:04.657Z,76.45
2022-12-13T08:54:33.579Z,75.53
2022-12-13T08:57:00.412Z,78.93
2022-12-13T08:59:27.269Z,70.20
2022-12-13T09:01:55.157Z,77.65
2022-12-13T09:04:32.039Z,81.85
2022-12-13T09:07:01.589Z,72.97
2022-12-13T09:09:29.643Z,73.75
2022-12-13T09:11:59.652Z,68.95
2022-12-13T09:14:34.096Z,74.28
2022-12-13T09:17:02.852Z,70.13
2022-12-13T09:19:37.094Z,64.60
2022-12-13T09:22:05.064Z,52.88
2022-12-13T09:24:36.337Z,73.75
2022-12-13T09:27:09.818Z,73.53
2022-12-13T09:29:38.269Z,65.55
2022-12-13T09:32:05.521Z,72.57
2022-12-13T09:34:33.063Z,64.57
2022-12-13T09:37:01.370Z,65.85
2022-12-13T09:39:29.315Z,64.45
2022-12-13T09:42:00.977Z,70.00
2022-12-13T09:44:43.874Z,60.72
2022-12-13T09:47:26.957Z,59.22
2022-12-13T09:50:07.283Z,65.30
2022-12-13T09:52:43.696Z,64.82
2022-12-13T09:55:30.237Z,63.20
2022-12-13T09:57:59.053Z,67.22
2022-12-13T10:00:32.883Z,61.30
2022-12-13T10:03:00.576Z,60.83
2022-12-13T10:05:39.176Z,57.35
2022-12-13T10:08:12.153Z,57.65
2022-12-13T10:10:38.764Z,63.55
2022-12-13T10:13:36.580Z,54.92
2022-12-13T10:16:38.519Z,55.03
2022-12-13T10:19:28.770Z,51.70
2022-12-13T10:22:01.513Z,57.47
2022-12-13T10:24:50.514Z,53.63
2022-12-13T10:27:37.812Z,50.05
2022-12-13T10:30:28.511Z,45.63
2022-12-13T10:32:59.948Z,48.10
2022-12-13T10:35:32.716Z,51.33
2022-12-13T10:38:20.943Z,52.58
2022-12-13T10:40:49.110Z,50.15
2022-12-13T10:43:17.310Z,53.95
2022-12-13T10:45:56.695Z,53.80
2022-12-13T10:48:50.714Z,52.85
2022-12-13T10:51:20.187Z,49.60
2022-12-13T10:54:00.617Z,54.03
2022-12-13T10:56:42.388Z,46.05
2022-12-13T10:59:24.819Z,47.65
2022-12-13T11:01:51.659Z,43.83
2022-12-13T11:04:38.538Z,43.80
2022-12-13T11:07:23.819Z,43.42
2022-12-13T11:09:52.794Z,39.22
2022-12-13T11:12:25.839Z,48.95
2022-12-13T11:15:06.164Z,40.13
2022-12-13T11:17:47.684Z,41.30
2022-12-13T11:20:54.857Z,37.90
2022-12-13T11:23:44.808Z,39.00
2022-12-13T11:26:24.533Z,39.15
2022-12-13T11:28:58.023Z,38.22
2022-12-13T11:31:33.579Z,45.55
2022-12-13T11:34:05.749Z,40.72
2022-12-13T11:36:48.556Z,42.53
2022-12-13T11:39:28.541Z,40.25
2022-12-13T11:42:13.784Z,35.25
2022-12-13T11:44:55.585Z,41.17
2022-12-13T11:47:28.424Z,39.45
2022-12-13T11:49:58.572Z,41.13
2022-12-13T11:52:35.714Z,37.63
2022-12-13T11:55:40.235Z,41.83
2022-12-13T11:58:53.443Z,40.63
2022-12-13T12:01:32.928Z,42.03
2022-12-13T12:04:16.961Z,42.15
2022-12-13T12:06:50.624Z,41.05
2022-12-13T12:09:20.830Z,43.85
2022-12-13T12:11:56.743Z,42.25
2022-12-13T12:14:29.628Z,44.13
2022-12-13T12:16:58.492Z,43.35
2022-12-13T12:19:38.067Z,39.65
2022-12-13T12:22:39.729Z,44.47
2022-12-13T12:25:18.144Z,41.30
2022-12-13T12:27:59.842Z,40.95
2022-12-13T12:30:39.957Z,43.08
2022-12-13T12:33:33.779Z,40.85
2022-12-13T12:36:37.900Z,42.25
2022-12-13T12:39:41.995Z,45.65
2022-12-13T12:42:26.897Z,42.45
2022-12-13T12:45:17.498Z,42.65
2022-12-13T12:48:50.941Z,40.63
2022-12-13T12:52:03.701Z,40.30
2022-12-13T12:55:11.823Z,42.05
2022-12-13T12:57:56.993Z,41.97
2022-12-13T13:00:35.885Z,47.65
2022-12-13T13:03:23.412Z,48.90
2022-12-13T13:06:10.252Z,43.33
2022-12-13T13:08:56.679Z,49.05
2022-12-13T13:11:26.258Z,51.65
2022-12-13T13:14:01.663Z,46.38
2022-12-13T13:16:37.287Z,46.47
2022-12-13T13:19:12.181Z,41.28
2022-12-13T13:21:43.991Z,44.83
2022-12-13T13:24:17.862Z,44.50
2022-12-13T13:26:50.411Z,41.22
2022-12-13T13:29:27.480Z,42.65
2022-12-13T13:32:11.404Z,47.03
2022-12-13T13:34:43.243Z,46.75
2022-12-13T13:37:22.981Z,42.63
2022-12-13T13:39:53.136Z,42.20
2022-12-13T13:42:22.421Z,42.72
2022-12-13T13:44:48.855Z,40.33
2022-12-13T13:47:22.318Z,41.67
2022-12-13T13:50:12.995Z,41.97
2022-12-13T13:53:07.796Z,48.38
2022-12-13T13:55:49.864Z,45.35
2022-12-13T13:58:57.189Z,47.47
2022-12-13T14:01:44.818Z,51.75
2022-12-13T14:04:31.761Z,47.92
2022-12-13T14:07:30.497Z,44.83
2022-12-13T14:10:13.967Z,41.95
2022-12-13T14:13:11.879Z,52.55
2022-12-13T14:16:20.161Z,47.53
2022-12-13T14:18:59.652Z,44.15
2022-12-13T14:21:53.674Z,48.90
2022-12-13T14:24:41.878Z,48.38
2022-12-13T14:27:35.783Z,45.63
2022-12-13T14:30:26.869Z,46.85
2022-12-13T14:32:50.404Z,44.97
2022-12-13T14:35:31.685Z,49.60
2022-12-13T14:38:06.747Z,44.97
2022-12-13T14:43:00.562Z,49.47
2022-12-13T14:45:33.921Z,46.20
2022-12-13T14:48:05.298Z,48.63
2022-12-13T14:50:35.350Z,51.95
2022-12-13T14:53:05.069Z,51.00
2022-12-13T14:55:37.300Z,49.80
2022-12-13T14:58:16.633Z,49.70
2022-12-13T15:00:43.718Z,53.92
2022-12-13T15:03:21.463Z,51.58
2022-12-13T15:06:01.083Z,53.92
2022-12-13T15:08:28.123Z,50.83
2022-12-13T15:10:57.602Z,47.00
2022-12-13T15:13:35.914Z,45.80
2022-12-13T15:16:10.476Z,53.70
2022-12-13T15:21:21.112Z,52.42
2022-12-13T15:23:49.804Z,47.47
2022-12-13T15:26:28.777Z,53.50
2022-12-13T15:28:58.936Z,57.00
2022-12-13T15:31:25.645Z,61.90
2022-12-13T15:33:52.244Z,58.20
2022-12-13T15:36:27.213Z,62.05
2022-12-13T15:38:53.586Z,56.33
2022-12-13T15:41:22.778Z,51.42
2022-12-13T15:43:53.710Z,63.00
2022-12-13T15:46:33.287Z,59.35
2022-12-13T15:49:01.805Z,55.20
2022-12-13T15:51:30.571Z,59.22
2022-12-13T15:54:06.238Z,59.25
2022-12-13T15:56:41.654Z,59.97
2022-12-13T15:59:26.250Z,75.95
2022-12-13T16:01:57.967Z,59.80
2022-12-13T16:04:29.265Z,61.85
2022-12-13T16:06:56.711Z,82.95
2022-12-13T16:09:25.945Z,75.70
2022-12-13T16:11:55.723Z,66.20
2022-12-13T16:14:31.502Z,62.15
2022-12-13T16:17:08.145Z,65.70
2022-12-13T16:19:35.247Z,60.05
2022-12-13T16:22:02.121Z,52.13
2022-12-13T16:24:35.092Z,60.33
2022-12-13T16:27:01.600Z,58.55
2022-12-13T16:29:35.529Z,56.75
2022-12-13T16:32:07.835Z,73.55
2022-12-13T16:34:35.052Z,118.35
2022-12-13T16:37:01.525Z,107.15
2022-12-13T16:39:28.016Z,97.13
2022-12-13T16:41:54.504Z,92.53
2022-12-13T16:44:23.638Z,75.53
2022-12-13T16:47:12.142Z,81.35
2022-12-13T16:49:36.868Z,70.45
2022-12-13T16:52:05.021Z,93.07
2022-12-13T16:54:31.477Z,107.07
2022-12-13T16:56:57.957Z,61.53
2022-12-13T16:59:26.382Z,66.72
2022-12-13T17:01:54.051Z,65.28
2022-12-13T17:04:22.997Z,95.95
2022-12-13T17:06:50.729Z,71.05
2022-12-13T17:09:18.582Z,71.82
2022-12-13T17:11:45.366Z,58.45
2022-12-13T17:14:11.885Z,59.20
2022-12-13T17:16:38.372Z,48.05
2022-12-13T17:19:05.345Z,55.33
2022-12-13T17:21:32.017Z,48.80
2022-12-13T17:24:00.222Z,48.92
2022-12-13T17:26:28.036Z,48.55
2022-12-13T17:28:54.535Z,43.90
2022-12-13T17:31:21.804Z,50.65
2022-12-13T17:33:48.439Z,45.55
2022-12-13T17:36:15.832Z,48.22
2022-12-13T17:38:46.814Z,46.67
2022-12-13T17:41:14.619Z,41.20
2022-12-13T17:43:42.500Z,43.92
2022-12-13T17:46:15.429Z,49.15
2022-12-13T17:48:42.926Z,46.33
2022-12-13T17:51:10.582Z,47.22
2022-12-13T17:53:39.087Z,48.22
2022-12-13T17:56:07.919Z,52.40
2022-12-13T17:58:35.325Z,46.30
2022-12-13T18:01:22.175Z,48.00
2022-12-13T18:03:51.329Z,48.50
2022-12-13T18:06:18.046Z,47.92
2022-12-13T18:08:46.715Z,56.30
2022-12-13T18:11:32.446Z,47.03
2022-12-13T18:14:00.436Z,48.42
2022-12-13T18:16:35.922Z,43.40
2022-12-13T18:19:08.560Z,66.18
2022-12-13T18:21:36.514Z,52.35
2022-12-13T18:24:03.060Z,51.90
2022-12-13T18:26:29.676Z,56.38
2022-12-13T18:28:56.118Z,55.83
2022-12-13T18:31:24.561Z,50.70
2022-12-13T18:33:53.254Z,63.40
2022-12-13T18:36:21.993Z,96.82
2022-12-13T18:38:48.704Z,110.22
2022-12-13T18:41:21.534Z,95.10
2022-12-13T18:43:48.050Z,83.65
2022-12-13T18:46:16.083Z,68.22
2022-12-13T18:48:42.758Z,55.38
2022-12-13T18:51:10.449Z,59.33
2022-12-13T18:53:37.939Z,54.63
2022-12-13T18:56:10.417Z,56.55
2022-12-13T18:58:41.038Z,49.38
2022-12-13T19:01:09.731Z,52.45
2022-12-13T19:03:39.779Z,48.70
2022-12-13T19:06:07.204Z,47.72
2022-12-13T19:08:36.365Z,50.60
2022-12-13T19:11:04.331Z,52.20
2022-12-13T19:13:32.476Z,48.88
2022-12-13T19:16:05.887Z,51.25
2022-12-13T19:18:32.797Z,45.90
2022-12-13T19:20:59.322Z,52.88
2022-12-13T19:23:26.155Z,48.55
2022-12-13T19:25:52.986Z,47.33
2022-12-13T19:28:19.773Z,50.33
2022-12-13T19:30:47.673Z,60.58
2022-12-13T19:33:15.067Z,52.92
2022-12-13T19:35:43.048Z,62.05
2022-12-13T19:38:09.902Z,57.67
2022-12-13T19:40:39.379Z,49.15
2022-12-13T19:43:06.128Z,54.25
2022-12-13T19:45:32.870Z,53.05
2022-12-13T19:47:59.497Z,51.25
2022-12-13T19:50:26.013Z,56.65
2022-12-13T19:52:52.498Z,62.92
2022-12-13T19:55:18.987Z,60.05
2022-12-13T19:57:45.481Z,59.28
2022-12-13T20:00:12.987Z,54.58
2022-12-13T20:02:39.557Z,81.80
2022-12-13T20:05:06.389Z,84.00
2022-12-13T20:07:32.856Z,76.57
2022-12-13T20:09:59.316Z,66.88
2022-12-13T20:12:25.793Z,76.95
2022-12-13T20:14:52.313Z,73.65
2022-12-13T20:17:19.281Z,70.43
2022-12-13T20:19:45.735Z,56.63
2022-12-13T20:22:12.272Z,61.85
2022-12-13T20:24:38.736Z,59.42
2022-12-13T20:27:05.194Z,62.05
2022-12-13T20:29:31.967Z,56.95
2022-12-13T20:31:58.524Z,67.60
2022-12-13T20:34:25.060Z,58.85
2022-12-13T20:36:51.561Z,56.65
2022-12-13T20:39:18.102Z,54.15
2022-12-13T20:41:44.639Z,55.88
2022-12-13T20:44:12.685Z,52.88
2022-12-13T20:46:39.609Z,50.50
2022-12-13T20:49:08.676Z,54.58
2022-12-13T20:51:36.889Z,57.80
2022-12-13T20:54:03.749Z,54.05
2022-12-13T20:56:35.127Z,50.38
2022-12-13T20:59:06.609Z,56.13
2022-12-13T21:01:35.363Z,49.63
2022-12-13T21:04:05.251Z,56.50
2022-12-13T21:06:33.776Z,51.92
2022-12-13T21:09:02.693Z,52.92
2022-12-13T21:11:42.962Z,51.83
2022-12-13T21:14:21.173Z,56.90
2022-12-13T21:16:52.614Z,55.22
2022-12-13T21:19:27.401Z,51.97
2022-12-13T21:21:55.480Z,58.47
2022-12-13T21:24:24.157Z,62.40
2022-12-13T21:26:51.348Z,61.83
2022-12-13T21:29:18.755Z,60.97
2022-12-13T21:31:48.905Z,49.15
2022-12-13T21:34:16.772Z,57.78
2022-12-13T21:36:45.000Z,49.22
2022-12-13T21:39:14.518Z,55.78
2022-12-13T21:41:42.626Z,54.20
2022-12-13T21:44:14.251Z,53.08
2022-12-13T21:47:10.635Z,52.08
2022-12-13T21:49:28.180Z,47.47
2022-12-13T21:51:55.097Z,46.58
2022-12-13T21:54:22.779Z,57.05
2022-12-13T21:57:08.102Z,47.03
2022-12-13T21:59:34.573Z,50.53
2022-12-13T22:02:11.568Z,50.92
2022-12-13T22:04:44.087Z,56.40
2022-12-13T22:07:13.485Z,51.42
2022-12-13T22:09:40.520Z,57.40
2022-12-13T22:12:09.455Z,49.65
2022-12-13T22:14:36.750Z,46.47
2022-12-13T22:17:03.520Z,51.53
2022-12-13T22:19:30.147Z,47.63
2022-12-13T22:21:56.617Z,47.30
2022-12-13T22:24:23.112Z,50.67
2022-12-13T22:26:49.550Z,50.88
2022-12-13T22:29:16.631Z,49.17
2022-12-13T22:31:43.224Z,49.58
2022-12-13T22:34:15.497Z,49.15
2022-12-13T22:36:42.038Z,51.63
2022-12-13T22:39:15.738Z,49.08
2022-12-13T22:41:42.235Z,46.75
2022-12-13T22:44:10.842Z,51.45
2022-12-13T22:46:37.362Z,50.72
2022-12-13T22:49:04.113Z,53.92
2022-12-13T22:51:30.549Z,55.88
2022-12-13T22:53:57.022Z,52.05
2022-12-13T22:56:24.307Z,49.40
2022-12-13T22:58:58.832Z,46.28
2022-12-13T23:01:27.297Z,46.95
2022-12-13T23:03:54.101Z,47.30
2022-12-13T23:06:31.668Z,48.22
2022-12-13T23:09:00.379Z,44.88
2022-12-13T23:11:46.777Z,48.22
2022-12-13T23:14:17.627Z,50.30
2022-12-13T23:16:44.475Z,46.88
2022-12-13T23:19:40.861Z,48.75
2022-12-13T23:22:00.968Z,47.55
2022-12-13T23:24:27.516Z,44.38
2022-12-13T23:26:53.963Z,47.60
2022-12-13T23:29:20.461Z,50.33
2022-12-13T23:31:48.486Z,48.33
2022-12-13T23:34:15.638Z,43.58
2022-12-13T23:36:42.452Z,48.70
2022-12-13T23:39:09.285Z,40.70
2022-12-13T23:41:36.107Z,40.38
2022-12-13T23:44:04.402Z,40.70
2022-12-13T23:46:35.796Z,40.55
2022-12-13T23:49:04.924Z,44.83
2022-12-13T23:51:32.630Z,43.42
2022-12-13T23:53:59.420Z,40.55
2022-12-13T23:56:26.114Z,41.13
2022-12-13T23:58:52.568Z,42.50
